sensor_id;sensor_type;location;lat;lon;timestamp;temperature;humidity
15394;DHT22;7795;47.986;11.868;2022-08-01T00:02:01;23.50;60.60
15394;DHT22;7795;47.986;11.868;2022-08-01T00:04:27;23.50;60.40
15394;DHT22;7795;47.986;11.868;2022-08-01T00:06:53;23.50;60.20
15394;DHT22;7795;47.986;11.868;2022-08-01T00:09:18;23.60;60.10
15394;DHT22;7795;47.986;11.868;2022-08-01T00:11:44;23.60;59.90
15394;DHT22;7795;47.986;11.868;2022-08-01T00:14:10;23.60;59.80
15394;DHT22;7795;47.986;11.868;2022-08-01T00:16:37;23.60;59.60
15394;DHT22;7795;47.986;11.868;2022-08-01T00:19:03;23.60;59.60
15394;DHT22;7795;47.986;11.868;2022-08-01T00:21:29;23.70;59.50
15394;DHT22;7795;47.986;11.868;2022-08-01T00:23:55;23.70;59.40
15394;DHT22;7795;47.986;11.868;2022-08-01T00:26:21;23.70;59.20
15394;DHT22;7795;47.986;11.868;2022-08-01T00:28:46;23.70;59.00
15394;DHT22;7795;47.986;11.868;2022-08-01T00:31:12;23.80;59.00
15394;DHT22;7795;47.986;11.868;2022-08-01T00:33:39;23.80;58.90
15394;DHT22;7795;47.986;11.868;2022-08-01T00:36:05;23.80;58.70
15394;DHT22;7795;47.986;11.868;2022-08-01T00:38:31;23.90;58.70
15394;DHT22;7795;47.986;11.868;2022-08-01T00:40:57;23.90;58.70
15394;DHT22;7795;47.986;11.868;2022-08-01T00:43:23;24.00;58.50
15394;DHT22;7795;47.986;11.868;2022-08-01T00:45:48;24.00;58.50
15394;DHT22;7795;47.986;11.868;2022-08-01T00:48:14;24.00;58.20
15394;DHT22;7795;47.986;11.868;2022-08-01T00:50:41;24.10;58.20
15394;DHT22;7795;47.986;11.868;2022-08-01T00:53:07;24.10;58.00
15394;DHT22;7795;47.986;11.868;2022-08-01T00:55:54;24.10;57.90
15394;DHT22;7795;47.986;11.868;2022-08-01T00:58:20;24.10;57.60
15394;DHT22;7795;47.986;11.868;2022-08-01T01:00:46;24.10;57.80
15394;DHT22;7795;47.986;11.868;2022-08-01T01:03:11;24.10;57.70
15394;DHT22;7795;47.986;11.868;2022-08-01T01:05:45;24.10;57.60
15394;DHT22;7795;47.986;11.868;2022-08-01T01:08:16;24.20;57.60
15394;DHT22;7795;47.986;11.868;2022-08-01T01:10:47;24.10;57.60
15394;DHT22;7795;47.986;11.868;2022-08-01T01:13:20;24.20;57.50
15394;DHT22;7795;47.986;11.868;2022-08-01T01:15:55;24.20;57.50
15394;DHT22;7795;47.986;11.868;2022-08-01T01:18:24;24.20;57.50
15394;DHT22;7795;47.986;11.868;2022-08-01T01:20:58;24.20;57.50
15394;DHT22;7795;47.986;11.868;2022-08-01T01:23:40;24.10;57.30
15394;DHT22;7795;47.986;11.868;2022-08-01T01:26:24;24.10;57.30
15394;DHT22;7795;47.986;11.868;2022-08-01T01:29:02;24.10;57.30
15394;DHT22;7795;47.986;11.868;2022-08-01T01:31:31;24.10;57.40
15394;DHT22;7795;47.986;11.868;2022-08-01T01:33:59;24.10;57.40
15394;DHT22;7795;47.986;11.868;2022-08-01T01:36:28;24.10;57.50
15394;DHT22;7795;47.986;11.868;2022-08-01T01:38:55;24.10;57.50
15394;DHT22;7795;47.986;11.868;2022-08-01T01:41:22;24.00;57.50
15394;DHT22;7795;47.986;11.868;2022-08-01T01:43:49;24.00;58.20
15394;DHT22;7795;47.986;11.868;2022-08-01T01:46:21;24.00;57.60
15394;DHT22;7795;47.986;11.868;2022-08-01T01:48:49;24.00;57.60
15394;DHT22;7795;47.986;11.868;2022-08-01T01:51:16;24.00;57.50
15394;DHT22;7795;47.986;11.868;2022-08-01T01:53:43;24.00;57.60
15394;DHT22;7795;47.986;11.868;2022-08-01T01:56:11;24.00;57.60
15394;DHT22;7795;47.986;11.868;2022-08-01T01:58:38;24.00;58.20
15394;DHT22;7795;47.986;11.868;2022-08-01T02:01:05;23.90;57.50
15394;DHT22;7795;47.986;11.868;2022-08-01T02:03:35;23.90;57.50
15394;DHT22;7795;47.986;11.868;2022-08-01T02:06:02;23.90;57.60
15394;DHT22;7795;47.986;11.868;2022-08-01T02:08:29;23.90;57.60
15394;DHT22;7795;47.986;11.868;2022-08-01T02:10:57;23.90;57.60
15394;DHT22;7795;47.986;11.868;2022-08-01T02:13:43;23.80;57.60
15394;DHT22;7795;47.986;11.868;2022-08-01T02:16:10;23.80;57.60
15394;DHT22;7795;47.986;11.868;2022-08-01T02:18:38;23.80;57.60
15394;DHT22;7795;47.986;11.868;2022-08-01T02:21:05;23.80;57.60
15394;DHT22;7795;47.986;11.868;2022-08-01T02:23:36;23.80;57.60
15394;DHT22;7795;47.986;11.868;2022-08-01T02:26:08;23.70;57.60
15394;DHT22;7795;47.986;11.868;2022-08-01T02:28:38;23.70;57.70
15394;DHT22;7795;47.986;11.868;2022-08-01T02:31:09;23.70;57.70
15394;DHT22;7795;47.986;11.868;2022-08-01T02:33:39;23.70;57.70
15394;DHT22;7795;47.986;11.868;2022-08-01T02:36:07;23.70;57.70
15394;DHT22;7795;47.986;11.868;2022-08-01T02:38:35;23.70;57.70
15394;DHT22;7795;47.986;11.868;2022-08-01T02:41:07;23.70;57.70
15394;DHT22;7795;47.986;11.868;2022-08-01T02:43:36;23.70;57.70
15394;DHT22;7795;47.986;11.868;2022-08-01T02:46:04;23.70;57.80
15394;DHT22;7795;47.986;11.868;2022-08-01T02:48:34;23.70;57.80
15394;DHT22;7795;47.986;11.868;2022-08-01T02:51:02;23.60;57.80
15394;DHT22;7795;47.986;11.868;2022-08-01T02:53:31;23.60;57.90
15394;DHT22;7795;47.986;11.868;2022-08-01T02:55:57;23.60;57.90
15394;DHT22;7795;47.986;11.868;2022-08-01T02:58:24;23.60;58.60
15394;DHT22;7795;47.986;11.868;2022-08-01T03:00:51;23.60;57.90
15394;DHT22;7795;47.986;11.868;2022-08-01T03:03:18;23.50;58.00
15394;DHT22;7795;47.986;11.868;2022-08-01T03:05:44;23.50;58.00
15394;DHT22;7795;47.986;11.868;2022-08-01T03:08:14;23.50;58.10
15394;DHT22;7795;47.986;11.868;2022-08-01T03:10:42;23.50;58.10
15394;DHT22;7795;47.986;11.868;2022-08-01T03:13:11;23.50;58.00
15394;DHT22;7795;47.986;11.868;2022-08-01T03:15:39;23.50;58.10
15394;DHT22;7795;47.986;11.868;2022-08-01T03:18:08;23.50;58.10
15394;DHT22;7795;47.986;11.868;2022-08-01T03:20:35;23.50;58.10
15394;DHT22;7795;47.986;11.868;2022-08-01T03:23:03;23.40;58.00
15394;DHT22;7795;47.986;11.868;2022-08-01T03:25:31;23.40;58.00
15394;DHT22;7795;47.986;11.868;2022-08-01T03:28:01;23.40;58.00
15394;DHT22;7795;47.986;11.868;2022-08-01T03:30:28;23.40;58.10
15394;DHT22;7795;47.986;11.868;2022-08-01T03:32:56;23.40;58.10
15394;DHT22;7795;47.986;11.868;2022-08-01T03:35:24;23.40;58.10
15394;DHT22;7795;47.986;11.868;2022-08-01T03:37:52;23.40;58.10
15394;DHT22;7795;47.986;11.868;2022-08-01T03:40:23;23.40;58.10
15394;DHT22;7795;47.986;11.868;2022-08-01T03:42:56;23.40;58.10
15394;DHT22;7795;47.986;11.868;2022-08-01T03:45:26;23.40;58.20
15394;DHT22;7795;47.986;11.868;2022-08-01T03:47:58;23.40;58.10
15394;DHT22;7795;47.986;11.868;2022-08-01T03:50:24;23.40;58.10
15394;DHT22;7795;47.986;11.868;2022-08-01T03:52:51;23.40;58.10
15394;DHT22;7795;47.986;11.868;2022-08-01T03:55:20;23.40;58.10
15394;DHT22;7795;47.986;11.868;2022-08-01T03:57:47;23.40;58.20
15394;DHT22;7795;47.986;11.868;2022-08-01T04:00:15;23.40;58.20
15394;DHT22;7795;47.986;11.868;2022-08-01T04:02:44;23.40;58.20
15394;DHT22;7795;47.986;11.868;2022-08-01T04:05:10;23.30;58.10
15394;DHT22;7795;47.986;11.868;2022-08-01T04:07:36;23.40;58.10
15394;DHT22;7795;47.986;11.868;2022-08-01T04:10:05;23.30;58.10
15394;DHT22;7795;47.986;11.868;2022-08-01T04:12:31;23.40;58.20
15394;DHT22;7795;47.986;11.868;2022-08-01T04:14:58;23.30;58.10
15394;DHT22;7795;47.986;11.868;2022-08-01T04:17:25;23.40;58.10
15394;DHT22;7795;47.986;11.868;2022-08-01T04:19:51;23.30;58.20
15394;DHT22;7795;47.986;11.868;2022-08-01T04:22:17;23.40;58.90
15394;DHT22;7795;47.986;11.868;2022-08-01T04:24:46;23.40;58.20
15394;DHT22;7795;47.986;11.868;2022-08-01T04:27:19;23.40;58.30
15394;DHT22;7795;47.986;11.868;2022-08-01T04:29:48;23.40;58.30
15394;DHT22;7795;47.986;11.868;2022-08-01T04:32:16;23.30;58.20
15394;DHT22;7795;47.986;11.868;2022-08-01T04:34:46;23.40;58.30
15394;DHT22;7795;47.986;11.868;2022-08-01T04:37:14;23.40;58.40
15394;DHT22;7795;47.986;11.868;2022-08-01T04:39:42;23.40;58.30
15394;DHT22;7795;47.986;11.868;2022-08-01T04:42:10;23.40;58.30
15394;DHT22;7795;47.986;11.868;2022-08-01T04:44:36;23.40;58.20
15394;DHT22;7795;47.986;11.868;2022-08-01T04:47:03;23.40;58.20
15394;DHT22;7795;47.986;11.868;2022-08-01T04:49:31;23.40;58.20
15394;DHT22;7795;47.986;11.868;2022-08-01T04:51:58;23.40;58.30
15394;DHT22;7795;47.986;11.868;2022-08-01T04:54:25;23.40;58.30
15394;DHT22;7795;47.986;11.868;2022-08-01T04:56:52;23.40;58.30
15394;DHT22;7795;47.986;11.868;2022-08-01T04:59:19;23.50;58.40
15394;DHT22;7795;47.986;11.868;2022-08-01T05:02:03;23.50;58.30
15394;DHT22;7795;47.986;11.868;2022-08-01T05:04:29;23.50;58.30
15394;DHT22;7795;47.986;11.868;2022-08-01T05:06:55;23.50;58.30
15394;DHT22;7795;47.986;11.868;2022-08-01T05:09:22;23.50;58.30
15394;DHT22;7795;47.986;11.868;2022-08-01T05:11:47;23.60;58.20
15394;DHT22;7795;47.986;11.868;2022-08-01T05:14:13;23.60;58.30
15394;DHT22;7795;47.986;11.868;2022-08-01T05:16:39;23.60;58.30
15394;DHT22;7795;47.986;11.868;2022-08-01T05:19:05;23.60;58.20
15394;DHT22;7795;47.986;11.868;2022-08-01T05:21:31;23.70;58.20
15394;DHT22;7795;47.986;11.868;2022-08-01T05:23:56;23.70;58.20
15394;DHT22;7795;47.986;11.868;2022-08-01T05:26:24;23.80;58.30
15394;DHT22;7795;47.986;11.868;2022-08-01T05:28:50;23.80;58.20
15394;DHT22;7795;47.986;11.868;2022-08-01T05:31:16;23.80;58.10
15394;DHT22;7795;47.986;11.868;2022-08-01T05:33:42;23.80;58.10
15394;DHT22;7795;47.986;11.868;2022-08-01T05:36:07;23.90;58.10
15394;DHT22;7795;47.986;11.868;2022-08-01T05:38:33;24.00;58.10
15394;DHT22;7795;47.986;11.868;2022-08-01T05:40:59;24.00;58.10
15394;DHT22;7795;47.986;11.868;2022-08-01T05:43:26;24.10;58.10
15394;DHT22;7795;47.986;11.868;2022-08-01T05:45:52;24.20;58.00
15394;DHT22;7795;47.986;11.868;2022-08-01T05:48:18;24.20;57.90
15394;DHT22;7795;47.986;11.868;2022-08-01T05:50:43;24.30;57.80
15394;DHT22;7795;47.986;11.868;2022-08-01T05:53:09;24.40;57.70
15394;DHT22;7795;47.986;11.868;2022-08-01T05:55:35;24.40;58.20
15394;DHT22;7795;47.986;11.868;2022-08-01T05:58:01;24.50;57.50
15394;DHT22;7795;47.986;11.868;2022-08-01T06:00:28;24.60;57.50
15394;DHT22;7795;47.986;11.868;2022-08-01T06:02:54;24.70;58.00
15394;DHT22;7795;47.986;11.868;2022-08-01T06:05:20;24.80;57.30
15394;DHT22;7795;47.986;11.868;2022-08-01T06:07:46;24.90;57.30
15394;DHT22;7795;47.986;11.868;2022-08-01T06:10:11;25.00;57.20
15394;DHT22;7795;47.986;11.868;2022-08-01T06:12:38;25.10;57.00
15394;DHT22;7795;47.986;11.868;2022-08-01T06:15:04;25.20;56.70
15394;DHT22;7795;47.986;11.868;2022-08-01T06:17:31;25.40;56.40
15394;DHT22;7795;47.986;11.868;2022-08-01T06:19:57;25.50;56.60
15394;DHT22;7795;47.986;11.868;2022-08-01T06:22:23;25.60;55.50
15394;DHT22;7795;47.986;11.868;2022-08-01T06:24:49;25.70;55.40
15394;DHT22;7795;47.986;11.868;2022-08-01T06:27:15;25.70;55.40
15394;DHT22;7795;47.986;11.868;2022-08-01T06:29:40;25.80;55.30
15394;DHT22;7795;47.986;11.868;2022-08-01T06:32:08;25.90;55.20
15394;DHT22;7795;47.986;11.868;2022-08-01T06:34:36;25.90;55.20
15394;DHT22;7795;47.986;11.868;2022-08-01T06:37:02;26.00;54.90
15394;DHT22;7795;47.986;11.868;2022-08-01T06:39:27;26.00;54.80
15394;DHT22;7795;47.986;11.868;2022-08-01T06:41:53;26.10;54.90
15394;DHT22;7795;47.986;11.868;2022-08-01T06:44:19;26.10;55.20
15394;DHT22;7795;47.986;11.868;2022-08-01T06:46:44;26.20;54.80
15394;DHT22;7795;47.986;11.868;2022-08-01T06:49:10;26.20;54.70
15394;DHT22;7795;47.986;11.868;2022-08-01T06:51:38;26.30;54.60
15394;DHT22;7795;47.986;11.868;2022-08-01T06:54:03;26.30;54.30
15394;DHT22;7795;47.986;11.868;2022-08-01T06:56:29;26.40;54.40
15394;DHT22;7795;47.986;11.868;2022-08-01T06:58:55;26.40;54.20
15394;DHT22;7795;47.986;11.868;2022-08-01T07:01:26;26.50;53.90
15394;DHT22;7795;47.986;11.868;2022-08-01T07:03:52;26.50;53.80
15394;DHT22;7795;47.986;11.868;2022-08-01T07:06:18;26.50;53.70
15394;DHT22;7795;47.986;11.868;2022-08-01T07:08:45;26.50;53.70
15394;DHT22;7795;47.986;11.868;2022-08-01T07:11:11;26.50;53.50
15394;DHT22;7795;47.986;11.868;2022-08-01T07:13:36;26.50;53.60
15394;DHT22;7795;47.986;11.868;2022-08-01T07:16:02;26.50;53.50
15394;DHT22;7795;47.986;11.868;2022-08-01T07:18:28;26.50;53.80
15394;DHT22;7795;47.986;11.868;2022-08-01T07:20:54;26.50;53.70
15394;DHT22;7795;47.986;11.868;2022-08-01T07:23:20;26.50;53.50
15394;DHT22;7795;47.986;11.868;2022-08-01T07:25:47;26.50;53.40
15394;DHT22;7795;47.986;11.868;2022-08-01T07:28:14;26.50;53.40
15394;DHT22;7795;47.986;11.868;2022-08-01T07:30:40;26.50;53.40
15394;DHT22;7795;47.986;11.868;2022-08-01T07:33:07;26.50;53.40
15394;DHT22;7795;47.986;11.868;2022-08-01T07:35:33;26.60;53.50
15394;DHT22;7795;47.986;11.868;2022-08-01T07:37:59;26.60;53.70
15394;DHT22;7795;47.986;11.868;2022-08-01T07:40:25;26.60;53.60
15394;DHT22;7795;47.986;11.868;2022-08-01T07:42:52;26.70;53.50
15394;DHT22;7795;47.986;11.868;2022-08-01T07:45:18;26.70;53.40
15394;DHT22;7795;47.986;11.868;2022-08-01T07:47:44;26.80;53.50
15394;DHT22;7795;47.986;11.868;2022-08-01T07:50:10;26.80;53.40
15394;DHT22;7795;47.986;11.868;2022-08-01T07:52:38;26.90;53.80
15394;DHT22;7795;47.986;11.868;2022-08-01T07:55:04;26.90;53.60
15394;DHT22;7795;47.986;11.868;2022-08-01T07:57:30;27.00;53.00
15394;DHT22;7795;47.986;11.868;2022-08-01T07:59:58;27.10;52.90
15394;DHT22;7795;47.986;11.868;2022-08-01T08:02:23;27.10;52.60
15394;DHT22;7795;47.986;11.868;2022-08-01T08:04:49;27.20;52.70
15394;DHT22;7795;47.986;11.868;2022-08-01T08:07:15;27.20;52.60
15394;DHT22;7795;47.986;11.868;2022-08-01T08:09:41;27.30;52.50
15394;DHT22;7795;47.986;11.868;2022-08-01T08:12:07;27.30;52.30
15394;DHT22;7795;47.986;11.868;2022-08-01T08:14:33;27.30;52.10
15394;DHT22;7795;47.986;11.868;2022-08-01T08:17:00;27.30;52.20
15394;DHT22;7795;47.986;11.868;2022-08-01T08:19:26;27.40;51.90
15394;DHT22;7795;47.986;11.868;2022-08-01T08:21:52;27.40;52.00
15394;DHT22;7795;47.986;11.868;2022-08-01T08:24:18;27.40;52.60
15394;DHT22;7795;47.986;11.868;2022-08-01T08:26:46;27.50;52.80
15394;DHT22;7795;47.986;11.868;2022-08-01T08:29:12;27.50;52.70
15394;DHT22;7795;47.986;11.868;2022-08-01T08:31:38;27.50;51.80
15394;DHT22;7795;47.986;11.868;2022-08-01T08:34:05;27.60;52.00
15394;DHT22;7795;47.986;11.868;2022-08-01T08:36:31;27.60;51.80
15394;DHT22;7795;47.986;11.868;2022-08-01T08:38:57;27.60;51.80
15394;DHT22;7795;47.986;11.868;2022-08-01T08:41:23;27.70;51.60
15394;DHT22;7795;47.986;11.868;2022-08-01T08:43:49;27.70;51.40
15394;DHT22;7795;47.986;11.868;2022-08-01T08:46:15;27.80;51.50
15394;DHT22;7795;47.986;11.868;2022-08-01T08:48:42;27.80;51.20
15394;DHT22;7795;47.986;11.868;2022-08-01T08:51:10;27.80;51.40
15394;DHT22;7795;47.986;11.868;2022-08-01T08:53:38;27.90;51.40
15394;DHT22;7795;47.986;11.868;2022-08-01T08:56:09;27.90;51.20
15394;DHT22;7795;47.986;11.868;2022-08-01T08:58:36;28.00;50.90
15394;DHT22;7795;47.986;11.868;2022-08-01T09:01:05;28.00;50.70
15394;DHT22;7795;47.986;11.868;2022-08-01T09:03:30;28.10;50.80
15394;DHT22;7795;47.986;11.868;2022-08-01T09:05:56;28.10;50.60
15394;DHT22;7795;47.986;11.868;2022-08-01T09:08:23;28.20;50.50
15394;DHT22;7795;47.986;11.868;2022-08-01T09:10:49;28.20;50.20
15394;DHT22;7795;47.986;11.868;2022-08-01T09:13:15;28.30;50.80
15394;DHT22;7795;47.986;11.868;2022-08-01T09:15:42;28.30;50.10
15394;DHT22;7795;47.986;11.868;2022-08-01T09:18:23;28.40;50.70
15394;DHT22;7795;47.986;11.868;2022-08-01T09:20:50;28.40;50.20
15394;DHT22;7795;47.986;11.868;2022-08-01T09:26:13;28.50;50.00
15394;DHT22;7795;47.986;11.868;2022-08-01T09:28:41;28.60;49.20
15394;DHT22;7795;47.986;11.868;2022-08-01T09:31:08;28.60;49.30
15394;DHT22;7795;47.986;11.868;2022-08-01T09:33:48;28.70;49.20
15394;DHT22;7795;47.986;11.868;2022-08-01T09:36:14;28.70;48.70
15394;DHT22;7795;47.986;11.868;2022-08-01T09:38:40;28.80;49.10
15394;DHT22;7795;47.986;11.868;2022-08-01T09:41:07;28.80;48.40
15394;DHT22;7795;47.986;11.868;2022-08-01T09:43:34;28.80;48.30
15394;DHT22;7795;47.986;11.868;2022-08-01T09:46:04;28.80;48.40
15394;DHT22;7795;47.986;11.868;2022-08-01T09:48:31;28.80;48.20
15394;DHT22;7795;47.986;11.868;2022-08-01T09:50:59;28.80;48.30
15394;DHT22;7795;47.986;11.868;2022-08-01T09:53:25;28.90;48.40
15394;DHT22;7795;47.986;11.868;2022-08-01T09:55:51;28.90;48.60
15394;DHT22;7795;47.986;11.868;2022-08-01T09:58:18;28.90;48.80
15394;DHT22;7795;47.986;11.868;2022-08-01T10:00:58;28.90;48.60
15394;DHT22;7795;47.986;11.868;2022-08-01T10:03:26;29.00;49.00
15394;DHT22;7795;47.986;11.868;2022-08-01T10:05:53;29.00;48.50
15394;DHT22;7795;47.986;11.868;2022-08-01T10:08:20;29.10;48.30
15394;DHT22;7795;47.986;11.868;2022-08-01T10:11:05;29.10;48.30
15394;DHT22;7795;47.986;11.868;2022-08-01T10:13:32;29.20;47.60
15394;DHT22;7795;47.986;11.868;2022-08-01T10:16:00;29.20;48.10
15394;DHT22;7795;47.986;11.868;2022-08-01T10:18:27;29.30;47.80
15394;DHT22;7795;47.986;11.868;2022-08-01T10:20:54;29.30;48.00
15394;DHT22;7795;47.986;11.868;2022-08-01T10:23:20;29.40;47.40
15394;DHT22;7795;47.986;11.868;2022-08-01T10:25:48;29.40;47.40
15394;DHT22;7795;47.986;11.868;2022-08-01T10:28:15;29.40;47.10
15394;DHT22;7795;47.986;11.868;2022-08-01T10:30:42;29.40;47.00
15394;DHT22;7795;47.986;11.868;2022-08-01T10:33:10;29.50;47.80
15394;DHT22;7795;47.986;11.868;2022-08-01T10:35:37;29.50;46.90
15394;DHT22;7795;47.986;11.868;2022-08-01T10:38:03;29.60;47.00
15394;DHT22;7795;47.986;11.868;2022-08-01T10:40:30;29.60;46.80
15394;DHT22;7795;47.986;11.868;2022-08-01T10:42:56;29.70;46.80
15394;DHT22;7795;47.986;11.868;2022-08-01T10:45:23;29.70;46.70
15394;DHT22;7795;47.986;11.868;2022-08-01T10:47:55;29.80;46.70
15394;DHT22;7795;47.986;11.868;2022-08-01T10:50:29;29.90;46.90
15394;DHT22;7795;47.986;11.868;2022-08-01T10:53:13;29.90;46.50
15394;DHT22;7795;47.986;11.868;2022-08-01T10:55:51;30.00;46.00
15394;DHT22;7795;47.986;11.868;2022-08-01T10:58:21;30.10;46.10
15394;DHT22;7795;47.986;11.868;2022-08-01T11:00:47;30.10;45.50
15394;DHT22;7795;47.986;11.868;2022-08-01T11:03:13;30.20;45.80
15394;DHT22;7795;47.986;11.868;2022-08-01T11:05:42;30.20;45.90
15394;DHT22;7795;47.986;11.868;2022-08-01T11:08:10;30.20;45.30
15394;DHT22;7795;47.986;11.868;2022-08-01T11:10:46;30.30;45.30
15394;DHT22;7795;47.986;11.868;2022-08-01T11:13:12;30.30;45.30
15394;DHT22;7795;47.986;11.868;2022-08-01T11:15:40;30.30;45.20
15394;DHT22;7795;47.986;11.868;2022-08-01T11:18:29;30.30;45.00
15394;DHT22;7795;47.986;11.868;2022-08-01T11:20:59;30.30;44.70
15394;DHT22;7795;47.986;11.868;2022-08-01T11:23:26;30.40;44.80
15394;DHT22;7795;47.986;11.868;2022-08-01T11:26:20;30.30;44.80
15394;DHT22;7795;47.986;11.868;2022-08-01T11:29:10;30.40;44.30
15394;DHT22;7795;47.986;11.868;2022-08-01T11:31:37;30.40;43.80
15394;DHT22;7795;47.986;11.868;2022-08-01T11:34:02;30.40;44.20
15394;DHT22;7795;47.986;11.868;2022-08-01T11:36:30;30.50;44.10
15394;DHT22;7795;47.986;11.868;2022-08-01T11:39:19;30.50;44.10
15394;DHT22;7795;47.986;11.868;2022-08-01T11:41:46;30.50;43.80
15394;DHT22;7795;47.986;11.868;2022-08-01T11:44:15;30.60;44.20
15394;DHT22;7795;47.986;11.868;2022-08-01T11:47:05;30.60;44.10
15394;DHT22;7795;47.986;11.868;2022-08-01T11:49:46;30.60;43.10
15394;DHT22;7795;47.986;11.868;2022-08-01T11:52:17;30.70;42.80
15394;DHT22;7795;47.986;11.868;2022-08-01T11:54:46;30.70;43.20
15394;DHT22;7795;47.986;11.868;2022-08-01T11:57:14;30.80;43.30
15394;DHT22;7795;47.986;11.868;2022-08-01T11:59:42;30.80;43.10
15394;DHT22;7795;47.986;11.868;2022-08-01T12:02:16;30.90;43.00
15394;DHT22;7795;47.986;11.868;2022-08-01T12:04:54;31.00;42.90
15394;DHT22;7795;47.986;11.868;2022-08-01T12:07:22;31.00;42.20
15394;DHT22;7795;47.986;11.868;2022-08-01T12:09:57;31.10;42.40
15394;DHT22;7795;47.986;11.868;2022-08-01T12:12:23;31.20;41.90
15394;DHT22;7795;47.986;11.868;2022-08-01T12:14:53;31.20;42.40
15394;DHT22;7795;47.986;11.868;2022-08-01T12:17:20;31.30;42.30
15394;DHT22;7795;47.986;11.868;2022-08-01T12:19:49;31.40;42.40
15394;DHT22;7795;47.986;11.868;2022-08-01T12:22:15;31.40;41.90
15394;DHT22;7795;47.986;11.868;2022-08-01T12:24:42;31.50;42.20
15394;DHT22;7795;47.986;11.868;2022-08-01T12:27:09;31.50;41.90
15394;DHT22;7795;47.986;11.868;2022-08-01T12:29:37;31.50;42.50
15394;DHT22;7795;47.986;11.868;2022-08-01T12:32:04;31.60;41.90
15394;DHT22;7795;47.986;11.868;2022-08-01T12:34:30;31.60;41.90
15394;DHT22;7795;47.986;11.868;2022-08-01T12:37:00;31.70;42.00
15394;DHT22;7795;47.986;11.868;2022-08-01T12:39:34;31.70;41.50
15394;DHT22;7795;47.986;11.868;2022-08-01T12:42:01;31.70;41.00
15394;DHT22;7795;47.986;11.868;2022-08-01T12:44:30;31.70;41.60
15394;DHT22;7795;47.986;11.868;2022-08-01T12:46:56;31.70;40.90
15394;DHT22;7795;47.986;11.868;2022-08-01T12:49:23;31.70;41.20
15394;DHT22;7795;47.986;11.868;2022-08-01T12:51:50;31.70;41.40
15394;DHT22;7795;47.986;11.868;2022-08-01T12:54:16;31.60;41.30
15394;DHT22;7795;47.986;11.868;2022-08-01T12:56:41;31.60;41.20
15394;DHT22;7795;47.986;11.868;2022-08-01T12:59:22;31.60;41.10
15394;DHT22;7795;47.986;11.868;2022-08-01T13:01:51;31.60;40.70
15394;DHT22;7795;47.986;11.868;2022-08-01T13:04:16;31.60;41.20
15394;DHT22;7795;47.986;11.868;2022-08-01T13:06:42;31.60;40.60
15394;DHT22;7795;47.986;11.868;2022-08-01T13:09:09;31.60;40.60
15394;DHT22;7795;47.986;11.868;2022-08-01T13:11:39;31.60;41.00
15394;DHT22;7795;47.986;11.868;2022-08-01T13:14:06;31.70;40.80
15394;DHT22;7795;47.986;11.868;2022-08-01T13:16:45;31.70;40.60
15394;DHT22;7795;47.986;11.868;2022-08-01T13:19:12;31.80;41.00
15394;DHT22;7795;47.986;11.868;2022-08-01T13:21:38;31.80;40.50
15394;DHT22;7795;47.986;11.868;2022-08-01T13:24:06;31.90;40.30
15394;DHT22;7795;47.986;11.868;2022-08-01T13:26:42;32.00;39.70
15394;DHT22;7795;47.986;11.868;2022-08-01T13:29:09;32.00;39.70
15394;DHT22;7795;47.986;11.868;2022-08-01T13:31:38;32.00;39.60
15394;DHT22;7795;47.986;11.868;2022-08-01T13:34:04;32.10;39.00
15394;DHT22;7795;47.986;11.868;2022-08-01T13:36:30;32.10;39.20
15394;DHT22;7795;47.986;11.868;2022-08-01T13:38:56;32.20;39.20
15394;DHT22;7795;47.986;11.868;2022-08-01T13:41:41;32.30;39.10
15394;DHT22;7795;47.986;11.868;2022-08-01T13:44:07;32.30;38.80
15394;DHT22;7795;47.986;11.868;2022-08-01T13:46:34;32.30;38.70
15394;DHT22;7795;47.986;11.868;2022-08-01T13:49:02;32.40;38.70
15394;DHT22;7795;47.986;11.868;2022-08-01T13:51:28;32.40;38.60
15394;DHT22;7795;47.986;11.868;2022-08-01T13:53:53;32.50;38.70
15394;DHT22;7795;47.986;11.868;2022-08-01T13:56:19;32.50;38.40
15394;DHT22;7795;47.986;11.868;2022-08-01T13:58:45;32.50;38.50
15394;DHT22;7795;47.986;11.868;2022-08-01T14:01:11;32.50;39.00
15394;DHT22;7795;47.986;11.868;2022-08-01T14:03:37;32.60;38.70
15394;DHT22;7795;47.986;11.868;2022-08-01T14:06:05;32.60;38.20
15394;DHT22;7795;47.986;11.868;2022-08-01T14:08:31;32.60;38.10
15394;DHT22;7795;47.986;11.868;2022-08-01T14:10:57;32.60;37.90
15394;DHT22;7795;47.986;11.868;2022-08-01T14:13:24;32.50;37.90
15394;DHT22;7795;47.986;11.868;2022-08-01T14:15:50;32.50;38.20
15394;DHT22;7795;47.986;11.868;2022-08-01T14:18:15;32.50;37.60
15394;DHT22;7795;47.986;11.868;2022-08-01T14:20:41;32.50;37.50
15394;DHT22;7795;47.986;11.868;2022-08-01T14:23:09;32.60;37.70
15394;DHT22;7795;47.986;11.868;2022-08-01T14:25:35;32.60;38.10
15394;DHT22;7795;47.986;11.868;2022-08-01T14:28:00;32.60;38.50
15394;DHT22;7795;47.986;11.868;2022-08-01T14:30:26;32.50;38.40
15394;DHT22;7795;47.986;11.868;2022-08-01T14:32:52;32.50;38.40
15394;DHT22;7795;47.986;11.868;2022-08-01T14:35:18;32.50;38.40
15394;DHT22;7795;47.986;11.868;2022-08-01T14:37:43;32.50;38.40
15394;DHT22;7795;47.986;11.868;2022-08-01T14:40:10;32.50;38.60
15394;DHT22;7795;47.986;11.868;2022-08-01T14:42:37;32.50;38.80
15394;DHT22;7795;47.986;11.868;2022-08-01T14:45:04;32.50;38.90
15394;DHT22;7795;47.986;11.868;2022-08-01T14:47:34;32.50;38.20
15394;DHT22;7795;47.986;11.868;2022-08-01T14:50:00;32.50;37.60
15394;DHT22;7795;47.986;11.868;2022-08-01T14:52:26;32.50;37.80
15394;DHT22;7795;47.986;11.868;2022-08-01T14:54:51;32.50;37.50
15394;DHT22;7795;47.986;11.868;2022-08-01T14:57:19;32.50;37.30
15394;DHT22;7795;47.986;11.868;2022-08-01T14:59:45;32.50;38.10
15394;DHT22;7795;47.986;11.868;2022-08-01T15:02:11;32.40;37.60
15394;DHT22;7795;47.986;11.868;2022-08-01T15:04:39;32.40;37.50
15394;DHT22;7795;47.986;11.868;2022-08-01T15:07:04;32.30;37.60
15394;DHT22;7795;47.986;11.868;2022-08-01T15:09:30;32.30;37.70
15394;DHT22;7795;47.986;11.868;2022-08-01T15:11:56;32.30;37.70
15394;DHT22;7795;47.986;11.868;2022-08-01T15:14:23;32.20;37.90
15394;DHT22;7795;47.986;11.868;2022-08-01T15:17:07;32.20;38.00
15394;DHT22;7795;47.986;11.868;2022-08-01T15:19:33;32.10;38.00
15394;DHT22;7795;47.986;11.868;2022-08-01T15:21:58;32.10;38.20
15394;DHT22;7795;47.986;11.868;2022-08-01T15:24:24;32.10;38.30
15394;DHT22;7795;47.986;11.868;2022-08-01T15:26:50;32.00;38.00
15394;DHT22;7795;47.986;11.868;2022-08-01T15:29:16;31.90;37.80
15394;DHT22;7795;47.986;11.868;2022-08-01T15:31:43;31.90;37.80
15394;DHT22;7795;47.986;11.868;2022-08-01T15:34:09;31.90;38.00
15394;DHT22;7795;47.986;11.868;2022-08-01T15:36:34;31.80;38.10
15394;DHT22;7795;47.986;11.868;2022-08-01T15:39:00;31.80;38.70